X  Sluiten METAR luchtvaart weer gegevens      EHRD Rotterdam The Hague Airport
Temperatuur
20°C Temperatuur
13°C Dauwpunt
64% Vochtigheid



Wind
13 KM/U
8 MPH
4 M/S
7 KTS



30°
NNO
Huidig weer

Helder Helder
Luchtdruk 1015.92 (hPa) - 30 (inHg)
Zicht 6 (mijl) - 9.7 (km)
Vliegveld
Vliegveld code EHRD

Locatie : Rotterdam The Hague Airport
Afstand: 19 (km)

Metar:
EHRD 201825Z AUTO 03007KT 350V070 9999 NSC 20/13 Q1016 NOSIG

Tijd: 20-06-2024 18:25 CEST